sensor_id;sensor_type;location;lat;lon;timestamp;temperature;humidity
67942;SHT31;54731;42.600;23.476;2023-12-14T00:00:31;5.29;81.15
67942;SHT31;54731;42.600;23.476;2023-12-14T00:02:56;5.31;80.56
67942;SHT31;54731;42.600;23.476;2023-12-14T00:05:22;5.40;80.44
67942;SHT31;54731;42.600;23.476;2023-12-14T00:07:47;5.49;80.42
67942;SHT31;54731;42.600;23.476;2023-12-14T00:10:12;5.45;80.25
67942;SHT31;54731;42.600;23.476;2023-12-14T00:12:38;5.46;80.21
67942;SHT31;54731;42.600;23.476;2023-12-14T00:15:04;5.46;80.08
67942;SHT31;54731;42.600;23.476;2023-12-14T00:17:29;5.56;79.65
67942;SHT31;54731;42.600;23.476;2023-12-14T00:19:54;5.59;79.53
67942;SHT31;54731;42.600;23.476;2023-12-14T00:22:20;5.56;79.78
67942;SHT31;54731;42.600;23.476;2023-12-14T00:24:45;5.69;79.44
67942;SHT31;54731;42.600;23.476;2023-12-14T00:27:10;5.73;79.45
67942;SHT31;54731;42.600;23.476;2023-12-14T00:29:36;5.70;79.62
67942;SHT31;54731;42.600;23.476;2023-12-14T00:32:01;5.76;79.53
67942;SHT31;54731;42.600;23.476;2023-12-14T00:34:26;5.71;79.54
67942;SHT31;54731;42.600;23.476;2023-12-14T00:36:51;5.79;79.29
67942;SHT31;54731;42.600;23.476;2023-12-14T00:39:17;5.69;79.31
67942;SHT31;54731;42.600;23.476;2023-12-14T00:41:42;5.70;79.31
67942;SHT31;54731;42.600;23.476;2023-12-14T00:44:07;5.60;79.62
67942;SHT31;54731;42.600;23.476;2023-12-14T00:46:33;5.59;79.79
67942;SHT31;54731;42.600;23.476;2023-12-14T00:48:58;5.63;79.57
67942;SHT31;54731;42.600;23.476;2023-12-14T00:51:23;5.63;79.62
67942;SHT31;54731;42.600;23.476;2023-12-14T00:53:48;5.63;79.52
67942;SHT31;54731;42.600;23.476;2023-12-14T00:56:14;5.62;79.52
67942;SHT31;54731;42.600;23.476;2023-12-14T00:58:39;5.62;79.54
67942;SHT31;54731;42.600;23.476;2023-12-14T01:01:04;5.62;79.63
67942;SHT31;54731;42.600;23.476;2023-12-14T01:03:30;5.63;79.81
67942;SHT31;54731;42.600;23.476;2023-12-14T01:05:55;5.70;79.72
67942;SHT31;54731;42.600;23.476;2023-12-14T01:08:20;5.71;79.68
67942;SHT31;54731;42.600;23.476;2023-12-14T01:10:46;5.69;79.64
67942;SHT31;54731;42.600;23.476;2023-12-14T01:13:11;5.74;79.57
67942;SHT31;54731;42.600;23.476;2023-12-14T01:15:36;5.66;79.82
67942;SHT31;54731;42.600;23.476;2023-12-14T01:18:02;5.56;79.98
67942;SHT31;54731;42.600;23.476;2023-12-14T01:20:27;5.59;79.88
67942;SHT31;54731;42.600;23.476;2023-12-14T01:22:52;5.53;79.92
67942;SHT31;54731;42.600;23.476;2023-12-14T01:25:18;5.47;80.28
67942;SHT31;54731;42.600;23.476;2023-12-14T01:27:43;5.55;80.14
67942;SHT31;54731;42.600;23.476;2023-12-14T01:30:09;5.56;80.05
67942;SHT31;54731;42.600;23.476;2023-12-14T01:32:34;5.45;80.35
67942;SHT31;54731;42.600;23.476;2023-12-14T01:35:00;5.43;80.46
67942;SHT31;54731;42.600;23.476;2023-12-14T01:37:25;5.45;80.51
67942;SHT31;54731;42.600;23.476;2023-12-14T01:39:50;5.40;80.51
67942;SHT31;54731;42.600;23.476;2023-12-14T01:42:15;5.40;80.52
67942;SHT31;54731;42.600;23.476;2023-12-14T01:44:41;5.24;80.95
67942;SHT31;54731;42.600;23.476;2023-12-14T01:47:06;5.26;80.98
67942;SHT31;54731;42.600;23.476;2023-12-14T01:49:31;5.34;80.62
67942;SHT31;54731;42.600;23.476;2023-12-14T01:51:57;5.34;80.56
67942;SHT31;54731;42.600;23.476;2023-12-14T01:54:22;5.28;80.66
67942;SHT31;54731;42.600;23.476;2023-12-14T01:56:47;5.28;80.64
67942;SHT31;54731;42.600;23.476;2023-12-14T01:59:13;5.26;80.59
67942;SHT31;54731;42.600;23.476;2023-12-14T02:01:42;5.22;80.71
67942;SHT31;54731;42.600;23.476;2023-12-14T02:04:08;5.14;80.85
67942;SHT31;54731;42.600;23.476;2023-12-14T02:06:34;5.04;81.43
67942;SHT31;54731;42.600;23.476;2023-12-14T02:08:59;5.04;81.35
67942;SHT31;54731;42.600;23.476;2023-12-14T02:11:24;5.02;81.32
67942;SHT31;54731;42.600;23.476;2023-12-14T02:13:49;4.95;81.64
67942;SHT31;54731;42.600;23.476;2023-12-14T02:16:15;4.96;81.49
67942;SHT31;54731;42.600;23.476;2023-12-14T02:18:40;5.04;81.48
67942;SHT31;54731;42.600;23.476;2023-12-14T02:21:06;5.01;81.56
67942;SHT31;54731;42.600;23.476;2023-12-14T02:23:31;5.05;81.56
67942;SHT31;54731;42.600;23.476;2023-12-14T02:25:56;4.99;81.99
67942;SHT31;54731;42.600;23.476;2023-12-14T02:28:21;5.02;81.89
67942;SHT31;54731;42.600;23.476;2023-12-14T02:30:47;5.09;81.84
67942;SHT31;54731;42.600;23.476;2023-12-14T02:33:12;5.08;81.65
67942;SHT31;54731;42.600;23.476;2023-12-14T02:35:37;5.05;81.77
67942;SHT31;54731;42.600;23.476;2023-12-14T02:38:03;5.08;81.74
67942;SHT31;54731;42.600;23.476;2023-12-14T02:40:28;4.99;82.17
67942;SHT31;54731;42.600;23.476;2023-12-14T02:42:53;4.98;82.11
67942;SHT31;54731;42.600;23.476;2023-12-14T02:45:18;5.02;81.83
67942;SHT31;54731;42.600;23.476;2023-12-14T02:47:44;4.99;81.78
67942;SHT31;54731;42.600;23.476;2023-12-14T02:50:09;5.08;81.47
67942;SHT31;54731;42.600;23.476;2023-12-14T02:52:35;4.95;81.64
67942;SHT31;54731;42.600;23.476;2023-12-14T02:55:00;4.99;81.50
67942;SHT31;54731;42.600;23.476;2023-12-14T02:57:25;5.05;81.44
67942;SHT31;54731;42.600;23.476;2023-12-14T02:59:51;5.04;81.53
67942;SHT31;54731;42.600;23.476;2023-12-14T03:02:16;5.05;81.49
67942;SHT31;54731;42.600;23.476;2023-12-14T03:04:41;5.01;81.55
67942;SHT31;54731;42.600;23.476;2023-12-14T03:07:07;5.08;81.42
67942;SHT31;54731;42.600;23.476;2023-12-14T03:09:33;5.16;81.17
67942;SHT31;54731;42.600;23.476;2023-12-14T03:11:59;5.12;81.29
67942;SHT31;54731;42.600;23.476;2023-12-14T03:14:25;5.16;81.40
67942;SHT31;54731;42.600;23.476;2023-12-14T03:16:50;5.19;81.26
67942;SHT31;54731;42.600;23.476;2023-12-14T03:19:15;5.24;81.46
67942;SHT31;54731;42.600;23.476;2023-12-14T03:21:41;5.31;81.35
67942;SHT31;54731;42.600;23.476;2023-12-14T03:24:07;5.24;81.28
67942;SHT31;54731;42.600;23.476;2023-12-14T03:26:32;5.35;81.27
67942;SHT31;54731;42.600;23.476;2023-12-14T03:28:57;5.32;81.96
67942;SHT31;54731;42.600;23.476;2023-12-14T03:31:22;5.39;82.50
67942;SHT31;54731;42.600;23.476;2023-12-14T03:33:48;5.46;82.00
67942;SHT31;54731;42.600;23.476;2023-12-14T03:36:13;5.50;81.67
67942;SHT31;54731;42.600;23.476;2023-12-14T03:38:38;5.53;81.39
67942;SHT31;54731;42.600;23.476;2023-12-14T03:41:04;5.59;81.44
67942;SHT31;54731;42.600;23.476;2023-12-14T03:43:29;5.57;81.51
67942;SHT31;54731;42.600;23.476;2023-12-14T03:45:54;5.66;81.61
67942;SHT31;54731;42.600;23.476;2023-12-14T03:48:20;5.63;81.45
67942;SHT31;54731;42.600;23.476;2023-12-14T03:50:45;5.69;80.97
67942;SHT31;54731;42.600;23.476;2023-12-14T03:53:10;5.66;81.16
67942;SHT31;54731;42.600;23.476;2023-12-14T03:55:36;5.60;81.02
67942;SHT31;54731;42.600;23.476;2023-12-14T03:58:01;5.67;81.02
67942;SHT31;54731;42.600;23.476;2023-12-14T04:00:26;5.73;80.95
67942;SHT31;54731;42.600;23.476;2023-12-14T04:02:51;5.77;80.80
67942;SHT31;54731;42.600;23.476;2023-12-14T04:05:17;5.81;80.37
67942;SHT31;54731;42.600;23.476;2023-12-14T04:07:42;5.96;79.84
67942;SHT31;54731;42.600;23.476;2023-12-14T04:10:08;5.96;80.01
67942;SHT31;54731;42.600;23.476;2023-12-14T04:12:35;5.89;79.80
67942;SHT31;54731;42.600;23.476;2023-12-14T04:15:00;5.83;79.98
67942;SHT31;54731;42.600;23.476;2023-12-14T04:17:26;5.73;80.08
67942;SHT31;54731;42.600;23.476;2023-12-14T04:19:51;5.74;80.26
67942;SHT31;54731;42.600;23.476;2023-12-14T04:22:16;5.71;80.04
67942;SHT31;54731;42.600;23.476;2023-12-14T04:24:41;5.76;79.93
67942;SHT31;54731;42.600;23.476;2023-12-14T04:27:07;5.76;79.85
67942;SHT31;54731;42.600;23.476;2023-12-14T04:29:32;5.70;79.88
67942;SHT31;54731;42.600;23.476;2023-12-14T04:31:57;5.74;79.70
67942;SHT31;54731;42.600;23.476;2023-12-14T04:34:23;5.70;79.79
67942;SHT31;54731;42.600;23.476;2023-12-14T04:36:48;5.66;79.78
67942;SHT31;54731;42.600;23.476;2023-12-14T04:39:14;5.56;80.03
67942;SHT31;54731;42.600;23.476;2023-12-14T04:41:39;5.63;79.77
67942;SHT31;54731;42.600;23.476;2023-12-14T04:44:04;5.60;79.67
67942;SHT31;54731;42.600;23.476;2023-12-14T04:46:29;5.59;79.83
67942;SHT31;54731;42.600;23.476;2023-12-14T04:48:55;5.59;79.76
67942;SHT31;54731;42.600;23.476;2023-12-14T04:51:20;5.57;79.64
67942;SHT31;54731;42.600;23.476;2023-12-14T04:53:46;5.62;79.41
67942;SHT31;54731;42.600;23.476;2023-12-14T04:56:12;5.56;79.55
67942;SHT31;54731;42.600;23.476;2023-12-14T04:58:39;5.57;79.53
67942;SHT31;54731;42.600;23.476;2023-12-14T05:01:04;5.53;79.47
67942;SHT31;54731;42.600;23.476;2023-12-14T05:03:30;5.52;79.70
67942;SHT31;54731;42.600;23.476;2023-12-14T05:05:56;5.60;79.86
67942;SHT31;54731;42.600;23.476;2023-12-14T05:08:22;5.63;80.07
67942;SHT31;54731;42.600;23.476;2023-12-14T05:10:47;5.65;79.62
67942;SHT31;54731;42.600;23.476;2023-12-14T05:13:12;5.67;79.57
67942;SHT31;54731;42.600;23.476;2023-12-14T05:15:38;5.69;79.66
67942;SHT31;54731;42.600;23.476;2023-12-14T05:18:03;5.65;80.07
67942;SHT31;54731;42.600;23.476;2023-12-14T05:20:28;5.69;80.12
67942;SHT31;54731;42.600;23.476;2023-12-14T05:22:54;5.74;79.90
67942;SHT31;54731;42.600;23.476;2023-12-14T05:25:19;5.77;79.75
67942;SHT31;54731;42.600;23.476;2023-12-14T05:27:44;5.76;79.69
67942;SHT31;54731;42.600;23.476;2023-12-14T05:30:10;5.71;79.87
67942;SHT31;54731;42.600;23.476;2023-12-14T05:32:35;5.76;79.96
67942;SHT31;54731;42.600;23.476;2023-12-14T05:35:00;5.79;79.67
67942;SHT31;54731;42.600;23.476;2023-12-14T05:37:26;5.80;79.76
67942;SHT31;54731;42.600;23.476;2023-12-14T05:39:51;5.80;79.97
67942;SHT31;54731;42.600;23.476;2023-12-14T05:42:17;5.76;79.85
67942;SHT31;54731;42.600;23.476;2023-12-14T05:44:42;5.83;79.85
67942;SHT31;54731;42.600;23.476;2023-12-14T05:47:07;5.93;79.65
67942;SHT31;54731;42.600;23.476;2023-12-14T05:49:33;5.94;79.59
67942;SHT31;54731;42.600;23.476;2023-12-14T05:51:59;5.89;79.64
67942;SHT31;54731;42.600;23.476;2023-12-14T05:54:25;5.96;79.25
67942;SHT31;54731;42.600;23.476;2023-12-14T05:56:50;5.86;79.41
67942;SHT31;54731;42.600;23.476;2023-12-14T05:59:15;5.80;79.66
67942;SHT31;54731;42.600;23.476;2023-12-14T06:01:41;5.81;79.60
67942;SHT31;54731;42.600;23.476;2023-12-14T06:04:06;5.89;79.44
67942;SHT31;54731;42.600;23.476;2023-12-14T06:06:31;5.85;79.50
67942;SHT31;54731;42.600;23.476;2023-12-14T06:08:56;5.85;79.52
67942;SHT31;54731;42.600;23.476;2023-12-14T06:11:22;5.80;79.66
67942;SHT31;54731;42.600;23.476;2023-12-14T06:13:47;5.83;79.27
67942;SHT31;54731;42.600;23.476;2023-12-14T06:16:12;5.79;79.62
67942;SHT31;54731;42.600;23.476;2023-12-14T06:18:39;5.76;79.30
67942;SHT31;54731;42.600;23.476;2023-12-14T06:21:05;5.80;79.31
67942;SHT31;54731;42.600;23.476;2023-12-14T06:23:30;5.74;79.43
67942;SHT31;54731;42.600;23.476;2023-12-14T06:25:55;5.83;79.64
67942;SHT31;54731;42.600;23.476;2023-12-14T06:28:21;5.87;79.37
67942;SHT31;54731;42.600;23.476;2023-12-14T06:30:46;5.86;78.91
67942;SHT31;54731;42.600;23.476;2023-12-14T06:33:11;5.77;79.07
67942;SHT31;54731;42.600;23.476;2023-12-14T06:35:37;5.71;79.27
67942;SHT31;54731;42.600;23.476;2023-12-14T06:38:02;5.66;79.68
67942;SHT31;54731;42.600;23.476;2023-12-14T06:40:27;5.67;80.40
67942;SHT31;54731;42.600;23.476;2023-12-14T06:42:52;5.74;80.07
67942;SHT31;54731;42.600;23.476;2023-12-14T06:45:18;5.76;79.87
67942;SHT31;54731;42.600;23.476;2023-12-14T06:47:43;5.81;79.97
67942;SHT31;54731;42.600;23.476;2023-12-14T06:50:09;5.90;79.98
67942;SHT31;54731;42.600;23.476;2023-12-14T06:52:35;6.00;79.61
67942;SHT31;54731;42.600;23.476;2023-12-14T06:55:00;6.04;79.15
67942;SHT31;54731;42.600;23.476;2023-12-14T06:57:25;6.03;78.95
67942;SHT31;54731;42.600;23.476;2023-12-14T06:59:51;6.16;78.95
67942;SHT31;54731;42.600;23.476;2023-12-14T07:02:16;6.21;78.47
67942;SHT31;54731;42.600;23.476;2023-12-14T07:04:41;6.22;78.23
67942;SHT31;54731;42.600;23.476;2023-12-14T07:07:06;6.32;77.89
67942;SHT31;54731;42.600;23.476;2023-12-14T07:09:32;6.34;77.98
67942;SHT31;54731;42.600;23.476;2023-12-14T07:11:57;6.41;78.23
67942;SHT31;54731;42.600;23.476;2023-12-14T07:14:22;6.75;80.58
67942;SHT31;54731;42.600;23.476;2023-12-14T07:16:48;6.97;79.64
67942;SHT31;54731;42.600;23.476;2023-12-14T07:19:13;6.89;77.72
67942;SHT31;54731;42.600;23.476;2023-12-14T07:21:38;6.81;77.33
67942;SHT31;54731;42.600;23.476;2023-12-14T07:24:03;6.85;76.33
67942;SHT31;54731;42.600;23.476;2023-12-14T07:26:29;6.82;76.65
67942;SHT31;54731;42.600;23.476;2023-12-14T07:28:54;6.79;77.33
67942;SHT31;54731;42.600;23.476;2023-12-14T07:31:19;6.85;76.80
67942;SHT31;54731;42.600;23.476;2023-12-14T07:33:45;6.86;77.01
67942;SHT31;54731;42.600;23.476;2023-12-14T07:36:10;6.99;77.64
67942;SHT31;54731;42.600;23.476;2023-12-14T07:38:36;7.00;76.73
67942;SHT31;54731;42.600;23.476;2023-12-14T07:41:01;6.88;76.79
67942;SHT31;54731;42.600;23.476;2023-12-14T07:43:26;6.83;76.71
67942;SHT31;54731;42.600;23.476;2023-12-14T07:45:52;6.82;76.96
67942;SHT31;54731;42.600;23.476;2023-12-14T07:48:17;6.81;77.28
67942;SHT31;54731;42.600;23.476;2023-12-14T07:50:42;6.88;77.59
67942;SHT31;54731;42.600;23.476;2023-12-14T07:53:07;6.91;77.43
67942;SHT31;54731;42.600;23.476;2023-12-14T07:55:33;6.97;77.49
67942;SHT31;54731;42.600;23.476;2023-12-14T07:57:58;7.02;77.54
67942;SHT31;54731;42.600;23.476;2023-12-14T08:00:23;7.06;77.76
67942;SHT31;54731;42.600;23.476;2023-12-14T08:02:49;7.13;78.08
67942;SHT31;54731;42.600;23.476;2023-12-14T08:05:14;7.16;77.54
67942;SHT31;54731;42.600;23.476;2023-12-14T08:07:39;7.19;77.25
67942;SHT31;54731;42.600;23.476;2023-12-14T08:10:05;7.26;77.31
67942;SHT31;54731;42.600;23.476;2023-12-14T08:12:30;7.36;77.17
67942;SHT31;54731;42.600;23.476;2023-12-14T08:14:55;7.44;76.89
67942;SHT31;54731;42.600;23.476;2023-12-14T08:17:21;7.53;76.83
67942;SHT31;54731;42.600;23.476;2023-12-14T08:19:46;7.61;75.71
67942;SHT31;54731;42.600;23.476;2023-12-14T08:22:12;7.64;75.54
67942;SHT31;54731;42.600;23.476;2023-12-14T08:24:43;7.73;75.36
67942;SHT31;54731;42.600;23.476;2023-12-14T08:27:09;7.70;75.14
67942;SHT31;54731;42.600;23.476;2023-12-14T08:29:34;7.67;75.44
67942;SHT31;54731;42.600;23.476;2023-12-14T08:31:59;7.71;75.49
67942;SHT31;54731;42.600;23.476;2023-12-14T08:34:26;7.78;75.35
67942;SHT31;54731;42.600;23.476;2023-12-14T08:36:51;7.85;75.26
67942;SHT31;54731;42.600;23.476;2023-12-14T08:39:17;7.87;75.26
67942;SHT31;54731;42.600;23.476;2023-12-14T08:41:42;7.91;75.63
67942;SHT31;54731;42.600;23.476;2023-12-14T08:44:08;8.01;75.28
67942;SHT31;54731;42.600;23.476;2023-12-14T08:46:45;8.05;75.59
67942;SHT31;54731;42.600;23.476;2023-12-14T08:49:11;8.15;75.79
67942;SHT31;54731;42.600;23.476;2023-12-14T08:51:37;8.22;75.54
67942;SHT31;54731;42.600;23.476;2023-12-14T08:54:03;8.29;75.51
67942;SHT31;54731;42.600;23.476;2023-12-14T08:56:28;8.45;74.62
67942;SHT31;54731;42.600;23.476;2023-12-14T08:58:53;8.52;74.59
67942;SHT31;54731;42.600;23.476;2023-12-14T09:01:20;8.66;75.74
67942;SHT31;54731;42.600;23.476;2023-12-14T09:03:45;8.86;73.64
67942;SHT31;54731;42.600;23.476;2023-12-14T09:06:10;9.01;73.60
67942;SHT31;54731;42.600;23.476;2023-12-14T09:08:36;9.20;72.88
67942;SHT31;54731;42.600;23.476;2023-12-14T09:11:01;9.27;72.53
67942;SHT31;54731;42.600;23.476;2023-12-14T09:13:26;9.26;72.11
67942;SHT31;54731;42.600;23.476;2023-12-14T09:15:51;9.31;70.43
67942;SHT31;54731;42.600;23.476;2023-12-14T09:18:17;9.44;70.86
67942;SHT31;54731;42.600;23.476;2023-12-14T09:20:42;9.54;69.97
67942;SHT31;54731;42.600;23.476;2023-12-14T09:23:08;9.63;69.73
67942;SHT31;54731;42.600;23.476;2023-12-14T09:25:34;9.79;70.32
67942;SHT31;54731;42.600;23.476;2023-12-14T09:27:59;9.81;69.89
67942;SHT31;54731;42.600;23.476;2023-12-14T09:30:24;9.86;69.92
67942;SHT31;54731;42.600;23.476;2023-12-14T09:32:50;9.82;69.58
67942;SHT31;54731;42.600;23.476;2023-12-14T09:35:15;9.89;69.60
67942;SHT31;54731;42.600;23.476;2023-12-14T09:37:40;9.91;69.35
67942;SHT31;54731;42.600;23.476;2023-12-14T09:40:06;9.88;69.40
67942;SHT31;54731;42.600;23.476;2023-12-14T09:42:37;9.91;69.49
67942;SHT31;54731;42.600;23.476;2023-12-14T09:45:03;9.81;69.61
67942;SHT31;54731;42.600;23.476;2023-12-14T09:47:28;9.79;68.94
67942;SHT31;54731;42.600;23.476;2023-12-14T09:49:54;9.82;69.12
67942;SHT31;54731;42.600;23.476;2023-12-14T09:52:19;9.86;69.73
67942;SHT31;54731;42.600;23.476;2023-12-14T09:54:44;9.93;69.90
67942;SHT31;54731;42.600;23.476;2023-12-14T09:57:10;10.08;69.07
67942;SHT31;54731;42.600;23.476;2023-12-14T09:59:35;10.14;68.78
67942;SHT31;54731;42.600;23.476;2023-12-14T10:02:11;10.24;68.89
67942;SHT31;54731;42.600;23.476;2023-12-14T10:04:37;10.23;68.60
67942;SHT31;54731;42.600;23.476;2023-12-14T10:07:03;10.32;68.70
67942;SHT31;54731;42.600;23.476;2023-12-14T10:09:28;10.42;68.29
67942;SHT31;54731;42.600;23.476;2023-12-14T10:12:05;10.47;67.84
67942;SHT31;54731;42.600;23.476;2023-12-14T10:14:31;10.56;67.12
67942;SHT31;54731;42.600;23.476;2023-12-14T10:16:57;10.54;66.63
67942;SHT31;54731;42.600;23.476;2023-12-14T10:19:23;10.54;66.75
67942;SHT31;54731;42.600;23.476;2023-12-14T10:21:49;10.44;66.80
67942;SHT31;54731;42.600;23.476;2023-12-14T10:24:16;10.52;66.66
67942;SHT31;54731;42.600;23.476;2023-12-14T10:26:41;10.66;66.51
67942;SHT31;54731;42.600;23.476;2023-12-14T10:29:09;10.75;66.41
67942;SHT31;54731;42.600;23.476;2023-12-14T10:31:35;10.83;66.03
67942;SHT31;54731;42.600;23.476;2023-12-14T10:34:01;10.84;66.14
67942;SHT31;54731;42.600;23.476;2023-12-14T10:36:27;10.84;66.41
67942;SHT31;54731;42.600;23.476;2023-12-14T10:38:53;10.87;66.02
67942;SHT31;54731;42.600;23.476;2023-12-14T10:41:20;10.63;66.40
67942;SHT31;54731;42.600;23.476;2023-12-14T10:43:47;10.70;66.72
67942;SHT31;54731;42.600;23.476;2023-12-14T10:46:13;10.80;66.65
67942;SHT31;54731;42.600;23.476;2023-12-14T10:48:39;10.87;66.46
67942;SHT31;54731;42.600;23.476;2023-12-14T10:51:05;10.88;67.09
67942;SHT31;54731;42.600;23.476;2023-12-14T10:53:30;10.84;67.10
67942;SHT31;54731;42.600;23.476;2023-12-14T10:55:56;10.84;67.22
67942;SHT31;54731;42.600;23.476;2023-12-14T10:58:23;10.88;66.63
67942;SHT31;54731;42.600;23.476;2023-12-14T11:00:59;10.90;67.07
67942;SHT31;54731;42.600;23.476;2023-12-14T11:03:25;10.88;67.08
67942;SHT31;54731;42.600;23.476;2023-12-14T11:05:51;10.77;67.48
67942;SHT31;54731;42.600;23.476;2023-12-14T11:08:16;10.80;67.21
67942;SHT31;54731;42.600;23.476;2023-12-14T11:10:54;10.81;67.04
67942;SHT31;54731;42.600;23.476;2023-12-14T11:13:25;10.78;66.97
67942;SHT31;54731;42.600;23.476;2023-12-14T11:15:51;10.75;67.14
67942;SHT31;54731;42.600;23.476;2023-12-14T11:23:15;10.81;65.65
67942;SHT31;54731;42.600;23.476;2023-12-14T11:25:41;10.85;66.00
67942;SHT31;54731;42.600;23.476;2023-12-14T11:28:07;10.78;66.09
67942;SHT31;54731;42.600;23.476;2023-12-14T11:30:32;10.83;67.13
67942;SHT31;54731;42.600;23.476;2023-12-14T11:32:58;10.74;69.54
67942;SHT31;54731;42.600;23.476;2023-12-14T11:35:23;10.61;71.00
67942;SHT31;54731;42.600;23.476;2023-12-14T11:37:48;10.57;71.61
67942;SHT31;54731;42.600;23.476;2023-12-14T11:40:14;10.56;72.02
67942;SHT31;54731;42.600;23.476;2023-12-14T11:42:39;10.54;72.11
67942;SHT31;54731;42.600;23.476;2023-12-14T11:45:05;10.49;72.34
67942;SHT31;54731;42.600;23.476;2023-12-14T11:47:30;10.42;72.18
67942;SHT31;54731;42.600;23.476;2023-12-14T11:49:55;10.43;71.41
67942;SHT31;54731;42.600;23.476;2023-12-14T11:52:21;10.36;71.01
67942;SHT31;54731;42.600;23.476;2023-12-14T11:54:47;10.26;70.14
67942;SHT31;54731;42.600;23.476;2023-12-14T11:57:12;10.14;69.70
67942;SHT31;54731;42.600;23.476;2023-12-14T11:59:37;10.09;70.15
67942;SHT31;54731;42.600;23.476;2023-12-14T12:02:03;9.98;69.59
67942;SHT31;54731;42.600;23.476;2023-12-14T12:04:31;9.89;70.08
67942;SHT31;54731;42.600;23.476;2023-12-14T12:07:00;9.74;69.95
67942;SHT31;54731;42.600;23.476;2023-12-14T12:09:33;9.57;69.89
67942;SHT31;54731;42.600;23.476;2023-12-14T12:11:58;9.55;69.89
67942;SHT31;54731;42.600;23.476;2023-12-14T12:14:24;9.49;69.75
67942;SHT31;54731;42.600;23.476;2023-12-14T12:16:49;9.35;69.66
67942;SHT31;54731;42.600;23.476;2023-12-14T12:19:14;9.21;69.98
67942;SHT31;54731;42.600;23.476;2023-12-14T12:21:40;9.06;70.34
67942;SHT31;54731;42.600;23.476;2023-12-14T12:24:05;8.97;70.13
67942;SHT31;54731;42.600;23.476;2023-12-14T12:26:30;8.90;70.44
67942;SHT31;54731;42.600;23.476;2023-12-14T12:28:55;8.83;70.41
67942;SHT31;54731;42.600;23.476;2023-12-14T12:31:21;8.79;70.52
67942;SHT31;54731;42.600;23.476;2023-12-14T12:33:46;8.80;70.87
67942;SHT31;54731;42.600;23.476;2023-12-14T12:36:11;8.77;70.37
67942;SHT31;54731;42.600;23.476;2023-12-14T12:38:37;8.70;70.48
67942;SHT31;54731;42.600;23.476;2023-12-14T12:41:02;8.64;70.14
67942;SHT31;54731;42.600;23.476;2023-12-14T12:43:27;8.60;70.44
67942;SHT31;54731;42.600;23.476;2023-12-14T12:45:53;8.56;70.46
67942;SHT31;54731;42.600;23.476;2023-12-14T12:48:18;8.50;70.57
67942;SHT31;54731;42.600;23.476;2023-12-14T12:50:43;8.46;70.91
67942;SHT31;54731;42.600;23.476;2023-12-14T12:53:09;8.38;70.91
67942;SHT31;54731;42.600;23.476;2023-12-14T12:55:34;8.38;71.29
67942;SHT31;54731;42.600;23.476;2023-12-14T12:57:59;8.33;71.40
67942;SHT31;54731;42.600;23.476;2023-12-14T13:00:24;8.36;71.19
67942;SHT31;54731;42.600;23.476;2023-12-14T13:02:51;8.29;71.37
67942;SHT31;54731;42.600;23.476;2023-12-14T13:05:16;8.26;71.57
67942;SHT31;54731;42.600;23.476;2023-12-14T13:07:44;8.26;71.51
67942;SHT31;54731;42.600;23.476;2023-12-14T13:10:09;8.24;71.65
67942;SHT31;54731;42.600;23.476;2023-12-14T13:12:35;8.19;71.75
67942;SHT31;54731;42.600;23.476;2023-12-14T13:15:00;8.18;71.99
67942;SHT31;54731;42.600;23.476;2023-12-14T13:17:26;8.22;72.07
67942;SHT31;54731;42.600;23.476;2023-12-14T13:19:51;8.15;72.11
67942;SHT31;54731;42.600;23.476;2023-12-14T13:22:17;8.19;72.19
67942;SHT31;54731;42.600;23.476;2023-12-14T13:24:42;8.12;72.18
67942;SHT31;54731;42.600;23.476;2023-12-14T13:27:07;8.13;72.18
67942;SHT31;54731;42.600;23.476;2023-12-14T13:29:33;8.11;72.14
67942;SHT31;54731;42.600;23.476;2023-12-14T13:31:58;8.06;72.37
67942;SHT31;54731;42.600;23.476;2023-12-14T13:34:24;8.03;72.38
67942;SHT31;54731;42.600;23.476;2023-12-14T13:36:49;7.94;72.77
67942;SHT31;54731;42.600;23.476;2023-12-14T13:39:14;7.81;73.02
67942;SHT31;54731;42.600;23.476;2023-12-14T13:41:40;7.74;73.26
67942;SHT31;54731;42.600;23.476;2023-12-14T13:44:05;7.75;73.41
67942;SHT31;54731;42.600;23.476;2023-12-14T13:46:30;7.77;73.17
67942;SHT31;54731;42.600;23.476;2023-12-14T13:48:55;7.73;73.18
67942;SHT31;54731;42.600;23.476;2023-12-14T13:51:21;7.73;72.76
67942;SHT31;54731;42.600;23.476;2023-12-14T13:53:46;7.67;72.91
67942;SHT31;54731;42.600;23.476;2023-12-14T13:56:11;7.57;72.84
67942;SHT31;54731;42.600;23.476;2023-12-14T13:58:37;7.51;73.08
67942;SHT31;54731;42.600;23.476;2023-12-14T14:01:02;7.46;72.75
67942;SHT31;54731;42.600;23.476;2023-12-14T14:03:28;7.42;72.80
67942;SHT31;54731;42.600;23.476;2023-12-14T14:05:53;7.33;73.08
67942;SHT31;54731;42.600;23.476;2023-12-14T14:08:18;7.28;73.25
67942;SHT31;54731;42.600;23.476;2023-12-14T14:10:43;7.22;73.41
67942;SHT31;54731;42.600;23.476;2023-12-14T14:13:09;7.22;73.50
67942;SHT31;54731;42.600;23.476;2023-12-14T14:15:34;7.17;73.51
67942;SHT31;54731;42.600;23.476;2023-12-14T14:17:59;7.12;73.53
67942;SHT31;54731;42.600;23.476;2023-12-14T14:20:25;7.13;73.56
67942;SHT31;54731;42.600;23.476;2023-12-14T14:22:50;7.17;73.53
67942;SHT31;54731;42.600;23.476;2023-12-14T14:25:16;7.22;73.03
67942;SHT31;54731;42.600;23.476;2023-12-14T14:27:41;7.24;72.92
67942;SHT31;54731;42.600;23.476;2023-12-14T14:30:07;7.23;72.83
67942;SHT31;54731;42.600;23.476;2023-12-14T14:32:32;7.23;72.76
67942;SHT31;54731;42.600;23.476;2023-12-14T14:34:58;7.28;72.39
67942;SHT31;54731;42.600;23.476;2023-12-14T14:37:23;7.34;72.39
67942;SHT31;54731;42.600;23.476;2023-12-14T14:39:48;7.36;72.29
67942;SHT31;54731;42.600;23.476;2023-12-14T14:42:14;7.33;72.35
67942;SHT31;54731;42.600;23.476;2023-12-14T14:44:39;7.34;72.38
67942;SHT31;54731;42.600;23.476;2023-12-14T14:47:04;7.42;72.25
67942;SHT31;54731;42.600;23.476;2023-12-14T14:49:30;7.40;72.33
67942;SHT31;54731;42.600;23.476;2023-12-14T14:51:55;7.40;72.46
67942;SHT31;54731;42.600;23.476;2023-12-14T14:54:20;7.38;72.36
67942;SHT31;54731;42.600;23.476;2023-12-14T14:56:46;7.40;72.14
67942;SHT31;54731;42.600;23.476;2023-12-14T14:59:11;7.50;72.19
67942;SHT31;54731;42.600;23.476;2023-12-14T15:01:37;7.51;72.27
67942;SHT31;54731;42.600;23.476;2023-12-14T15:04:03;7.57;72.36
67942;SHT31;54731;42.600;23.476;2023-12-14T15:06:28;7.57;72.24
67942;SHT31;54731;42.600;23.476;2023-12-14T15:08:53;7.56;71.99
67942;SHT31;54731;42.600;23.476;2023-12-14T15:11:19;7.54;72.20
67942;SHT31;54731;42.600;23.476;2023-12-14T15:13:44;7.53;72.25
67942;SHT31;54731;42.600;23.476;2023-12-14T15:16:09;7.56;72.35
67942;SHT31;54731;42.600;23.476;2023-12-14T15:18:34;7.54;72.56
67942;SHT31;54731;42.600;23.476;2023-12-14T15:21:00;7.53;72.80
67942;SHT31;54731;42.600;23.476;2023-12-14T15:23:25;7.56;72.60